Time;durP1;ratioP1;P1;durP2;ratioP2;P2;SDS_P1;SDS_P2;PMS_P1;PMS_P2;Temp;Humidity;BMP_temperature;BMP_pressure;BME280_temperature;BME280_humidity;BME280_pressure;Samples;Min_cycle;Max_cycle;Signal;HPM_P1;HPM_P2
2022/08/08 00:02:32;;;;;;;10.73;9.63;;;;;;;25.03;65.85;99317.59;5070620;28;20562;-65
2022/08/08 00:05:10;;;;;;;13.10;9.20;;;;;;;24.95;66.53;99311.81;5069981;28;20191;-66
2022/08/08 00:07:54;;;;;;;12.07;10.87;;;;;;;24.89;66.58;99314.72;5070421;28;20205;-66
2022/08/08 00:10:26;;;;;;;11.77;10.53;;;;;;;24.88;66.60;99310.41;5070360;28;20217;-66
2022/08/08 00:13:03;;;;;;;10.93;9.87;;;;;;;24.85;67.03;99309.69;5066434;28;20728;-66
2022/08/08 00:15:35;;;;;;;13.53;11.13;;;;;;;24.79;67.35;99313.44;5070304;28;20187;-66
2022/08/08 00:18:08;;;;;;;12.43;10.10;;;;;;;24.78;67.70;99314.31;5070133;28;20239;-66
2022/08/08 00:20:43;;;;;;;11.07;9.97;;;;;;;24.68;68.36;99313.00;5070537;28;20195;-66
2022/08/08 00:23:15;;;;;;;11.27;10.27;;;;;;;24.55;68.77;99309.22;5064383;28;20257;-67
2022/08/08 00:25:47;;;;;;;12.67;11.50;;;;;;;24.52;68.93;99315.47;5050017;28;20192;-66
2022/08/08 00:28:18;;;;;;;12.40;11.20;;;;;;;24.49;69.33;99304.22;5053493;28;20223;-67
2022/08/08 00:30:52;;;;;;;11.63;10.43;;;;;;;24.38;70.33;99302.06;5069343;28;20195;-67
2022/08/08 00:33:26;;;;;;;11.83;10.73;;;;;;;24.33;70.60;99303.19;5055862;28;20191;-66
2022/08/08 00:36:06;;;;;;;14.20;11.30;;;;;;;24.33;70.75;99298.78;5070114;28;20226;-67
2022/08/08 00:38:42;;;;;;;12.60;11.27;;;;;;;24.30;70.91;99303.31;5056095;28;20727;-66
2022/08/08 00:41:41;;;;;;;12.47;11.27;;;;;;;24.19;71.63;99305.53;5056619;28;20204;-65
2022/08/08 00:44:37;;;;;;;12.10;11.03;;;;;;;24.13;71.83;99304.03;5059780;28;20199;-65
2022/08/08 00:47:41;;;;;;;14.03;12.73;;;;;;;24.07;72.10;99309.47;5070335;28;20979;-64
2022/08/08 00:51:01;;;;;;;13.40;12.20;;;;;;;24.06;72.17;99307.78;5069732;28;20211;-64
2022/08/08 00:54:09;;;;;;;13.57;12.25;;;;;;;24.05;73.10;99314.81;5026798;28;20493;-65
2022/08/08 00:57:12;;;;;;;14.33;12.83;;;;;;;23.99;73.08;99329.94;5056752;28;20279;-64
2022/08/08 01:00:06;;;;;;;14.93;13.47;;;;;;;23.84;73.75;99341.91;5053363;28;20184;-65
2022/08/08 01:03:08;;;;;;;17.33;15.27;;;;;;;23.62;75.34;99335.81;5054298;28;20196;-64
2022/08/08 01:06:37;;;;;;;15.60;13.37;;;;;;;23.53;75.59;99337.94;5065729;28;20187;-58
2022/08/08 01:09:28;;;;;;;14.93;13.53;;;;;;;23.35;76.49;99334.22;5048556;28;20589;-57
2022/08/08 01:12:32;;;;;;;15.17;13.57;;;;;;;23.29;76.89;99344.94;5032700;28;20195;-56
2022/08/08 01:15:32;;;;;;;15.53;13.93;;;;;;;23.23;77.21;99338.16;5067520;28;20183;-64
2022/08/08 01:18:46;;;;;;;15.43;13.83;;;;;;;23.17;77.74;99334.91;5069582;28;20226;-57
2022/08/08 01:21:31;;;;;;;15.83;14.33;;;;;;;23.11;77.87;99332.50;5070536;28;20191;-57
2022/08/08 01:24:40;;;;;;;15.33;13.93;;;;;;;23.03;78.21;99337.19;5071336;28;20265;-57
2022/08/08 01:27:46;;;;;;;14.47;13.13;;;;;;;23.01;78.31;99337.25;5073404;28;20562;-57
2022/08/08 01:30:43;;;;;;;15.47;14.10;;;;;;;22.99;78.21;99330.34;5072121;28;20215;-57
2022/08/08 01:33:44;;;;;;;15.83;14.43;;;;;;;22.92;78.60;99335.81;5071020;28;20199;-58
2022/08/08 01:36:41;;;;;;;15.87;14.17;;;;;;;22.89;78.89;99325.44;5071076;28;20183;-58
2022/08/08 01:39:34;;;;;;;15.13;13.53;;;;;;;22.91;79.21;99330.63;5069285;28;20654;-65
2022/08/08 01:42:09;;;;;;;16.17;14.40;;;;;;;22.90;79.05;99332.41;5069889;28;20197;-65
2022/08/08 01:45:02;;;;;;;15.40;14.00;;;;;;;22.96;78.88;99339.19;5073253;28;20205;-57
2022/08/08 01:48:02;;;;;;;15.53;13.57;;;;;;;22.94;78.93;99340.16;5053616;28;20197;-58
2022/08/08 01:50:43;;;;;;;15.23;13.63;;;;;;;22.80;78.48;99315.28;5053115;28;20220;-57
2022/08/08 01:53:21;;;;;;;15.77;14.17;;;;;;;22.95;78.59;99347.94;5052806;28;20189;-58
2022/08/08 01:55:58;;;;;;;14.27;12.87;;;;;;;22.98;78.28;99345.22;5053415;28;20191;-57
2022/08/08 01:58:39;;;;;;;15.03;13.23;;;;;;;23.00;78.25;99346.00;5053135;28;20689;-57
2022/08/08 02:01:19;;;;;;;14.47;12.70;;;;;;;22.97;78.57;99347.88;5055142;28;20278;-57
2022/08/08 02:03:58;;;;;;;14.00;12.70;;;;;;;23.00;78.32;99351.25;5072848;28;20609;-57
2022/08/08 02:06:43;;;;;;;13.37;12.07;;;;;;;23.06;77.98;99351.03;5073027;28;20191;-57
2022/08/08 02:09:18;;;;;;;14.23;12.93;;;;;;;23.04;78.00;99357.25;5073040;28;20211;-57
2022/08/08 02:11:47;;;;;;;15.83;13.00;;;;;;;23.00;78.39;99359.13;5072923;28;20198;-58
2022/08/08 02:14:27;;;;;;;13.77;12.43;;;;;;;23.02;78.38;99353.84;5072626;28;20191;-57
2022/08/08 02:17:02;;;;;;;13.80;12.50;;;;;;;22.97;78.28;99346.13;5072710;28;20188;-57
2022/08/08 02:19:37;;;;;;;14.57;13.23;;;;;;;23.01;78.22;99354.75;5072694;28;20244;-57
2022/08/08 02:24:59;;;;;;;14.23;12.93;;;;;;;22.95;77.55;99344.47;5072558;28;20239;-57
2022/08/08 02:27:33;;;;;;;14.32;13.02;;;;;;;22.95;77.86;99347.09;5071577;28;20441;-57
2022/08/08 02:30:08;;;;;;;13.87;12.57;;;;;;;23.00;77.38;99340.78;5072275;28;20215;-57
2022/08/08 02:32:57;;;;;;;15.60;13.97;;;;;;;22.99;77.31;99338.22;5072182;28;20685;-57
2022/08/08 02:35:42;;;;;;;14.80;13.40;;;;;;;22.94;77.64;99340.16;5072620;28;20195;-57
2022/08/08 02:38:34;;;;;;;16.60;13.17;;;;;;;22.88;78.16;99342.06;5072410;28;20203;-57
2022/08/08 02:41:40;;;;;;;14.33;12.93;;;;;;;22.80;78.39;99345.88;5072205;28;20219;-57
2022/08/08 02:44:33;;;;;;;14.03;12.73;;;;;;;22.76;78.54;99350.38;5071961;28;20195;-58
2022/08/08 02:47:26;;;;;;;13.03;11.87;;;;;;;22.83;77.91;99348.38;5072141;28;20195;-57
2022/08/08 02:50:16;;;;;;;13.10;11.80;;;;;;;22.88;77.20;99341.22;5070235;28;20220;-57
2022/08/08 02:52:55;;;;;;;12.83;11.63;;;;;;;22.96;76.30;99352.28;5072028;28;20203;-57
2022/08/08 02:55:51;;;;;;;13.43;12.17;;;;;;;22.92;76.05;99343.69;5071963;28;20191;-57
2022/08/08 02:58:51;;;;;;;12.63;11.53;;;;;;;22.90;75.88;99348.13;5072079;28;20191;-57
2022/08/08 03:01:54;;;;;;;12.47;11.37;;;;;;;22.91;75.72;99348.97;5071824;28;20192;-57
2022/08/08 03:04:53;;;;;;;12.97;11.83;;;;;;;22.90;75.10;99340.28;5071631;28;20180;-57
2022/08/08 03:08:05;;;;;;;13.50;12.23;;;;;;;22.88;75.86;99347.31;5071440;28;20198;-57
2022/08/08 03:10:50;;;;;;;13.70;12.40;;;;;;;22.88;75.71;99357.78;5051436;28;20443;-57
2022/08/08 03:13:44;;;;;;;13.60;12.33;;;;;;;22.89;75.74;99353.41;5051837;28;20245;-57
2022/08/08 03:16:42;;;;;;;13.53;12.03;;;;;;;22.86;75.55;99354.38;5051695;28;20196;-57
2022/08/08 03:19:26;;;;;;;12.87;11.77;;;;;;;22.85;75.36;99352.66;5028416;28;20203;-57
2022/08/08 03:21:53;;;;;;;13.17;12.00;;;;;;;22.87;75.68;99356.09;5051331;28;20249;-57
2022/08/08 03:24:21;;;;;;;14.10;12.80;;;;;;;22.83;75.61;99361.47;5051459;28;20196;-57
2022/08/08 03:26:52;;;;;;;14.60;13.13;;;;;;;22.76;76.44;99365.25;5051511;28;20189;-57
2022/08/08 03:29:23;;;;;;;14.93;13.30;;;;;;;22.67;77.06;99368.16;5051121;28;20319;-57
2022/08/08 03:34:35;;;;;;;14.50;13.10;;;;;;;22.58;77.68;99378.94;5051443;28;20685;-57
2022/08/08 03:37:01;;;;;;;15.95;14.48;;;;;;;22.57;77.81;99378.09;5050365;28;20450;-57
2022/08/08 03:39:30;;;;;;;15.30;13.80;;;;;;;22.57;77.89;99383.31;5050592;28;20220;-58
2022/08/08 03:41:57;;;;;;;14.77;13.40;;;;;;;22.55;77.80;99379.88;5051092;28;20196;-58
2022/08/08 03:44:31;;;;;;;14.23;12.93;;;;;;;22.54;77.64;99377.31;5051238;28;20560;-57
2022/08/08 03:46:57;;;;;;;14.27;12.80;;;;;;;22.54;77.40;99382.56;5051317;28;20188;-57
2022/08/08 03:49:26;;;;;;;13.97;12.53;;;;;;;22.46;78.02;99395.94;5051105;28;20269;-58
2022/08/08 03:51:54;;;;;;;17.40;13.43;;;;;;;22.52;77.61;99392.25;5050779;28;20279;-58
2022/08/08 03:54:22;;;;;;;14.40;13.07;;;;;;;22.57;77.31;99388.56;5051002;28;20192;-58
2022/08/08 03:56:50;;;;;;;15.93;13.57;;;;;;;22.63;77.33;99396.25;5050831;28;20574;-58
2022/08/08 03:59:17;;;;;;;14.10;12.67;;;;;;;22.50;76.87;99371.34;5050645;28;20184;-58
2022/08/08 04:01:45;;;;;;;16.40;13.13;;;;;;;22.68;76.87;99402.19;5050282;28;20561;-58
2022/08/08 04:04:12;;;;;;;13.83;12.53;;;;;;;22.70;76.64;99394.25;5050523;28;20215;-58
2022/08/08 04:06:39;;;;;;;13.83;12.40;;;;;;;22.70;76.59;99399.50;5050500;28;20195;-58
2022/08/08 04:09:08;;;;;;;14.57;13.07;;;;;;;22.72;76.85;99402.91;5050665;28;20188;-58
2022/08/08 04:11:39;;;;;;;15.70;13.03;;;;;;;22.75;76.36;99401.06;5050429;28;20192;-58
2022/08/08 04:14:07;;;;;;;14.90;13.23;;;;;;;22.73;76.41;99405.50;5050226;28;20610;-58
2022/08/08 04:16:34;;;;;;;13.23;11.97;;;;;;;22.78;76.28;99406.19;5050304;28;20195;-58
2022/08/08 04:19:01;;;;;;;14.03;12.63;;;;;;;22.86;75.97;99409.41;5050266;28;20721;-58
2022/08/08 04:21:28;;;;;;;14.80;13.32;;;;;;;22.98;75.58;99409.88;5049819;28;20421;-58
2022/08/08 04:23:55;;;;;;;13.70;12.40;;;;;;;23.07;74.49;99409.56;5050315;28;20208;-58
2022/08/08 04:26:21;;;;;;;13.47;12.13;;;;;;;23.06;74.63;99408.69;5050039;28;20248;-58
2022/08/08 04:28:48;;;;;;;13.97;12.50;;;;;;;23.14;74.32;99411.91;5050154;28;20196;-57
2022/08/08 04:31:16;;;;;;;13.70;11.57;;;;;;;23.18;73.59;99417.91;5049965;28;20224;-57
2022/08/08 04:33:43;;;;;;;12.43;11.17;;;;;;;23.26;72.19;99411.47;5049893;28;20192;-57
2022/08/08 04:36:10;;;;;;;21.17;12.27;;;;;;;23.36;72.48;99412.84;5050113;28;20253;-57
2022/08/08 04:38:37;;;;;;;12.87;11.40;;;;;;;23.47;71.95;99410.69;5049603;28;20192;-57
2022/08/08 04:41:04;;;;;;;12.77;11.10;;;;;;;23.53;71.62;99420.09;5049665;28;20199;-58
2022/08/08 04:43:30;;;;;;;12.10;11.00;;;;;;;23.67;70.99;99414.34;5049693;28;20204;-57
2022/08/08 04:45:57;;;;;;;14.93;11.37;;;;;;;23.80;70.32;99426.06;5049309;28;20443;-58
2022/08/08 04:48:25;;;;;;;13.13;11.50;;;;;;;23.90;69.83;99425.66;5049623;28;20195;-57
2022/08/08 04:50:52;;;;;;;13.03;11.83;;;;;;;23.92;70.06;99431.72;5050467;28;20224;-57
2022/08/08 04:53:19;;;;;;;13.03;11.60;;;;;;;23.89;69.56;99404.72;5054031;28;20219;-57
2022/08/08 04:55:46;;;;;;;13.23;11.93;;;;;;;24.09;69.52;99431.06;5067949;28;20229;-57
2022/08/08 04:58:15;;;;;;;12.27;11.13;;;;;;;24.17;69.24;99433.41;5073535;28;20195;-57
2022/08/08 05:00:42;;;;;;;14.83;11.03;;;;;;;24.25;68.43;99433.94;5073474;28;20199;-57
2022/08/08 05:03:09;;;;;;;12.40;10.70;;;;;;;24.35;67.74;99445.78;5073643;28;20198;-57
2022/08/08 05:05:38;;;;;;;11.83;10.63;;;;;;;24.44;67.24;99448.06;5073598;28;20187;-57
2022/08/08 05:08:05;;;;;;;11.43;10.40;;;;;;;24.29;67.85;99446.88;5071975;28;20195;-64
2022/08/08 05:10:31;;;;;;;12.57;11.33;;;;;;;24.24;68.21;99448.84;5073301;28;20322;-66
2022/08/08 05:12:58;;;;;;;13.03;10.67;;;;;;;24.27;68.51;99445.25;5073075;28;20203;-65
2022/08/08 05:15:25;;;;;;;13.17;11.87;;;;;;;24.22;69.10;99455.09;5072849;28;20559;-65
2022/08/08 05:17:52;;;;;;;12.37;11.17;;;;;;;24.38;68.51;99441.28;5072970;28;20634;-65
2022/08/08 05:20:20;;;;;;;11.93;10.93;;;;;;;24.49;68.74;99448.72;5073277;28;20187;-66
2022/08/08 05:22:49;;;;;;;11.43;10.33;;;;;;;24.71;65.90;99446.91;5072772;28;20700;-66
2022/08/08 05:25:16;;;;;;;11.07;9.97;;;;;;;24.88;65.45;99446.22;5072597;28;20198;-69
2022/08/08 05:27:43;;;;;;;10.77;9.87;;;;;;;25.04;64.80;99445.50;5072560;28;20191;-66
2022/08/08 05:30:11;;;;;;;10.90;9.90;;;;;;;25.12;65.31;99451.28;5071855;28;20219;-65
2022/08/08 05:32:38;;;;;;;12.63;11.10;;;;;;;25.25;64.69;99451.59;5071419;28;20566;-66
2022/08/08 05:35:06;;;;;;;12.10;9.33;;;;;;;25.30;63.57;99446.97;5072615;28;20279;-65
2022/08/08 05:37:38;;;;;;;11.75;10.65;;;;;;;25.43;63.78;99436.78;5071956;28;20433;-65
2022/08/08 05:40:08;;;;;;;10.43;9.53;;;;;;;25.61;62.73;99444.72;5072630;28;20190;-65
2022/08/08 05:42:41;;;;;;;11.37;10.20;;;;;;;25.69;62.58;99444.38;5072465;28;20653;-65
2022/08/08 05:45:08;;;;;;;11.43;10.05;;;;;;;25.78;62.82;99455.34;5072833;28;20191;-65
2022/08/08 05:47:37;;;;;;;11.10;10.07;;;;;;;25.81;63.38;99451.72;5081498;28;20194;-65
2022/08/08 05:50:06;;;;;;;12.15;10.85;;;;;;;25.84;63.43;99454.19;5078189;28;20218;-65
2022/08/08 05:52:34;;;;;;;11.03;10.00;;;;;;;25.86;63.25;99457.59;5065473;28;20196;-66
2022/08/08 05:55:01;;;;;;;12.47;10.57;;;;;;;25.96;63.28;99458.88;5071644;28;20191;-65
2022/08/08 05:57:34;;;;;;;10.95;9.95;;;;;;;26.07;62.10;99461.84;5071123;28;20246;-65
2022/08/08 06:00:04;;;;;;;11.23;10.25;;;;;;;26.07;62.42;99461.03;5070334;28;20524;-64
2022/08/08 06:05:19;;;;;;;9.90;9.00;;;;;;;26.15;60.54;99469.44;5071945;28;20199;-65
2022/08/08 06:07:48;;;;;;;10.48;9.38;;;;;;;26.15;60.43;99469.44;5071832;28;20203;-65
2022/08/08 06:10:15;;;;;;;10.50;9.60;;;;;;;26.24;59.88;99472.47;5071982;28;20242;-66
2022/08/08 06:12:44;;;;;;;10.75;9.73;;;;;;;26.36;59.90;99471.91;5071924;28;20188;-65
2022/08/08 06:15:11;;;;;;;12.07;10.02;;;;;;;26.40;59.43;99471.75;5069266;28;20262;-65
2022/08/08 06:17:40;;;;;;;10.90;9.27;;;;;;;26.29;58.87;99448.53;5066322;28;20717;-66
2022/08/08 06:20:11;;;;;;;10.02;8.93;;;;;;;26.28;57.82;99438.94;5070468;28;20449;-66
2022/08/08 06:22:40;;;;;;;10.48;9.48;;;;;;;26.56;57.51;99470.94;5071233;28;20196;-66
2022/08/08 06:25:08;;;;;;;12.70;9.00;;;;;;;26.57;57.28;99456.81;5071459;28;20200;-65
2022/08/08 06:27:40;;;;;;;11.20;10.07;;;;;;;26.77;56.72;99476.91;5071373;28;20188;-66
2022/08/08 06:30:10;;;;;;;11.40;9.48;;;;;;;26.89;56.21;99477.19;5071443;28;20215;-64
2022/08/08 06:32:42;;;;;;;11.40;9.45;;;;;;;26.98;55.73;99473.22;5071253;28;20223;-66
2022/08/08 06:35:12;;;;;;;10.45;9.45;;;;;;;26.92;55.65;99474.38;5071530;28;20666;-66
2022/08/08 06:37:44;;;;;;;10.68;9.48;;;;;;;26.86;56.40;99476.50;5070181;28;20676;-66
2022/08/08 06:40:13;;;;;;;10.50;9.50;;;;;;;26.93;55.70;99481.38;5069907;28;20283;-66
2022/08/08 06:42:45;;;;;;;10.98;9.98;;;;;;;26.82;55.52;99456.47;5069318;28;20560;-66
2022/08/08 06:45:14;;;;;;;12.02;9.98;;;;;;;27.13;55.69;99476.88;5070791;28;20239;-65
2022/08/08 06:47:41;;;;;;;11.02;9.95;;;;;;;27.23;55.17;99473.69;5070824;28;20202;-65
2022/08/08 06:50:10;;;;;;;10.43;9.52;;;;;;;27.33;54.88;99474.88;5071181;28;20226;-65
2022/08/08 06:52:39;;;;;;;10.32;9.38;;;;;;;27.37;55.37;99476.44;5071208;28;20199;-65
2022/08/08 06:55:07;;;;;;;10.82;9.77;;;;;;;27.52;54.46;99477.47;5070688;28;20536;-66
2022/08/08 06:57:35;;;;;;;9.55;8.75;;;;;;;27.63;51.95;99474.25;5070629;28;20202;-64
2022/08/08 07:00:04;;;;;;;10.00;9.13;;;;;;;27.37;52.51;99465.91;5071051;28;20559;-65
2022/08/08 07:02:35;;;;;;;13.50;10.15;;;;;;;27.54;52.79;99488.78;5068228;28;20204;-64
2022/08/08 07:05:05;;;;;;;12.55;9.60;;;;;;;27.49;53.12;99489.06;5070053;28;20729;-65
2022/08/08 07:07:47;;;;;;;11.90;9.40;;;;;;;27.55;52.76;99484.38;5070706;28;20639;-65
2022/08/08 07:10:19;;;;;;;10.73;9.40;;;;;;;27.61;51.71;99484.88;5069390;28;20446;-65
2022/08/08 07:12:52;;;;;;;9.90;8.93;;;;;;;27.78;52.58;99489.25;5070514;28;20195;-64
2022/08/08 07:15:26;;;;;;;10.82;9.77;;;;;;;27.79;52.75;99480.41;5070767;28;20196;-65
2022/08/08 07:18:02;;;;;;;12.48;9.43;;;;;;;27.90;51.28;99488.59;5070575;28;20241;-65
2022/08/08 07:20:34;;;;;;;10.48;9.38;;;;;;;28.02;51.03;99490.56;5071046;28;20179;-65
2022/08/08 07:23:03;;;;;;;10.05;9.15;;;;;;;28.08;51.00;99477.06;5070534;28;20225;-65
2022/08/08 07:25:33;;;;;;;15.90;12.38;;;;;;;28.21;51.04;99485.16;5070210;28;20198;-65
2022/08/08 07:28:08;;;;;;;9.30;8.48;;;;;;;28.33;48.54;99484.47;5069845;28;20191;-65
2022/08/08 07:30:35;;;;;;;11.48;9.23;;;;;;;28.43;48.49;99486.50;5069782;28;20325;-66
2022/08/08 07:33:03;;;;;;;10.60;9.65;;;;;;;28.49;49.20;99486.16;5069248;28;20191;-66
2022/08/08 07:35:31;;;;;;;9.43;8.50;;;;;;;28.61;47.59;99480.16;5069733;28;20206;-64
2022/08/08 07:37:59;;;;;;;9.15;8.35;;;;;;;28.76;47.05;99488.19;5069896;28;20203;-66
2022/08/08 07:40:27;;;;;;;8.88;7.68;;;;;;;28.86;45.83;99489.34;5070207;28;20195;-65
2022/08/08 07:42:54;;;;;;;12.32;7.50;;;;;;;28.88;45.67;99488.31;5070083;28;20196;-66
2022/08/08 07:45:22;;;;;;;9.00;8.13;;;;;;;28.90;44.91;99481.13;5069730;28;20207;-65
2022/08/08 07:47:49;;;;;;;9.55;8.13;;;;;;;29.04;44.74;99480.31;5068548;28;20943;-65
2022/08/08 07:50:17;;;;;;;7.30;6.70;;;;;;;29.21;44.58;99477.53;5069530;28;20199;-66
2022/08/08 07:52:48;;;;;;;7.43;6.65;;;;;;;29.32;42.79;99477.75;5069774;28;20278;-66
2022/08/08 07:55:22;;;;;;;9.25;7.45;;;;;;;29.36;42.56;99484.59;5069649;28;20203;-66
2022/08/08 07:58:12;;;;;;;9.07;6.22;;;;;;;29.48;41.30;99475.88;5069458;28;20195;-66
2022/08/08 08:00:40;;;;;;;7.65;6.82;;;;;;;29.59;41.33;99469.91;5069364;28;20199;-65
2022/08/08 08:03:10;;;;;;;7.90;6.20;;;;;;;29.56;41.21;99470.09;5069560;28;20302;-66
2022/08/08 08:05:42;;;;;;;11.88;7.28;;;;;;;29.68;41.04;99469.34;5069781;28;20191;-65
2022/08/08 08:08:16;;;;;;;8.00;6.82;;;;;;;29.73;41.20;99470.78;5069486;28;20282;-66
2022/08/08 08:10:45;;;;;;;6.38;5.78;;;;;;;29.69;39.65;99466.63;5069409;28;20215;-67
2022/08/08 08:13:22;;;;;;;6.15;5.60;;;;;;;29.85;40.25;99471.00;5069350;28;20195;-66
2022/08/08 08:15:55;;;;;;;9.45;5.75;;;;;;;29.96;40.08;99468.50;5069238;28;20194;-66
2022/08/08 08:18:23;;;;;;;7.85;5.63;;;;;;;30.10;39.60;99461.41;5068751;28;20974;-65
2022/08/08 08:20:53;;;;;;;6.22;5.43;;;;;;;30.23;38.15;99461.44;5069166;28;20202;-66
2022/08/08 08:23:20;;;;;;;6.10;5.50;;;;;;;30.33;38.87;99460.75;5068882;28;20520;-66
2022/08/08 08:25:47;;;;;;;7.53;6.72;;;;;;;30.43;38.55;99453.09;5068202;28;20551;-66
2022/08/08 08:28:14;;;;;;;6.65;6.13;;;;;;;30.52;37.14;99457.75;5068751;28;20683;-66
2022/08/08 08:30:41;;;;;;;6.10;5.60;;;;;;;30.66;36.45;99459.50;5068994;28;20645;-66
2022/08/08 08:33:07;;;;;;;8.57;5.65;;;;;;;30.62;35.96;99455.38;5068904;28;20724;-66
2022/08/08 08:35:34;;;;;;;6.50;4.80;;;;;;;30.71;35.01;99452.94;5069568;28;20214;-65
2022/08/08 08:38:03;;;;;;;5.60;4.82;;;;;;;30.78;35.56;99451.59;5069610;28;20632;-66
2022/08/08 08:40:31;;;;;;;5.47;5.00;;;;;;;30.84;35.19;99453.84;5069447;28;20667;-65
2022/08/08 08:42:59;;;;;;;6.85;5.10;;;;;;;30.78;34.96;99438.31;5069414;28;20303;-66
2022/08/08 08:45:27;;;;;;;7.55;5.00;;;;;;;30.89;34.28;99445.56;5069084;28;20266;-57
2022/08/08 08:47:55;;;;;;;7.10;4.90;;;;;;;30.91;33.69;99447.16;5069375;28;20192;-57
2022/08/08 08:50:23;;;;;;;7.78;4.68;;;;;;;30.97;33.90;99445.91;5069204;28;20195;-57
2022/08/08 08:52:50;;;;;;;8.68;5.90;;;;;;;31.16;34.23;99453.47;5069374;28;20580;-58
2022/08/08 08:55:19;;;;;;;6.28;4.65;;;;;;;31.28;33.32;99447.31;5067523;28;20445;-57
2022/08/08 08:57:49;;;;;;;6.60;4.00;;;;;;;31.40;31.93;99443.78;5069757;28;20191;-58
2022/08/08 09:00:17;;;;;;;6.75;4.10;;;;;;;31.46;32.21;99444.25;5069172;28;20195;-57
2022/08/08 09:02:45;;;;;;;6.00;4.75;;;;;;;31.48;32.86;99434.38;5068884;28;20199;-58
2022/08/08 09:05:14;;;;;;;8.63;5.20;;;;;;;31.49;33.67;99427.25;5069463;28;20203;-57
2022/08/08 09:07:42;;;;;;;5.85;5.25;;;;;;;31.63;33.00;99428.94;5069046;28;20192;-57
2022/08/08 09:10:13;;;;;;;5.95;4.70;;;;;;;31.68;32.17;99430.31;5068973;28;20191;-58
2022/08/08 09:12:46;;;;;;;7.30;5.00;;;;;;;31.84;31.82;99425.59;5064569;28;20215;-58
2022/08/08 09:15:13;;;;;;;8.98;5.57;;;;;;;31.89;32.04;99407.50;5068223;28;20241;-58
2022/08/08 09:17:41;;;;;;;7.07;5.13;;;;;;;31.82;31.37;99392.97;5061491;28;20219;-66
2022/08/08 09:20:10;;;;;;;6.45;5.68;;;;;;;32.02;31.14;99418.13;5059616;28;20287;-66
2022/08/08 09:22:37;;;;;;;7.68;4.88;;;;;;;32.09;31.89;99414.06;5062487;28;20191;-66
2022/08/08 09:25:05;;;;;;;8.40;4.85;;;;;;;32.19;31.22;99409.78;5069030;28;20196;-66
2022/08/08 09:27:33;;;;;;;4.60;4.20;;;;;;;31.97;30.07;99409.63;5068777;28;20620;-66
2022/08/08 09:30:04;;;;;;;6.40;5.22;;;;;;;32.07;30.74;99416.84;5067545;28;20492;-67
2022/08/08 09:32:37;;;;;;;5.93;4.60;;;;;;;32.27;30.02;99417.19;5064304;28;20602;-66
2022/08/08 09:35:07;;;;;;;4.50;4.10;;;;;;;32.28;30.26;99410.91;5062648;28;20199;-66
2022/08/08 09:37:44;;;;;;;11.45;4.88;;;;;;;32.37;30.56;99404.88;5068578;28;20637;-67
2022/08/08 09:40:12;;;;;;;5.35;4.85;;;;;;;32.47;30.55;99404.06;5072218;28;20340;-66
2022/08/08 09:42:41;;;;;;;6.65;4.55;;;;;;;32.53;29.92;99401.00;5072506;28;20183;-66
2022/08/08 09:45:11;;;;;;;5.28;4.75;;;;;;;32.61;30.65;99395.09;5072459;28;20195;-65
2022/08/08 09:47:40;;;;;;;4.82;4.43;;;;;;;32.78;30.00;99400.00;5072411;28;20191;-66
2022/08/08 09:50:09;;;;;;;8.25;7.03;;;;;;;32.91;30.30;99392.75;5061171;28;20204;-66
2022/08/08 09:52:38;;;;;;;7.75;4.07;;;;;;;33.17;28.78;99394.28;5067931;28;20208;-66
2022/08/08 09:55:06;;;;;;;8.23;4.75;;;;;;;33.23;28.61;99384.97;5068035;28;20862;-66
2022/08/08 09:57:35;;;;;;;8.77;5.65;;;;;;;33.28;29.32;99381.94;5070023;28;20202;-65
2022/08/08 10:00:04;;;;;;;6.28;4.45;;;;;;;33.34;28.92;99386.78;5069287;28;20203;-65
2022/08/08 10:02:35;;;;;;;5.10;4.60;;;;;;;33.32;28.19;99386.06;5071781;28;20187;-65
2022/08/08 10:05:07;;;;;;;4.95;4.45;;;;;;;33.24;28.79;99383.97;5068582;28;20196;-65
2022/08/08 10:07:34;;;;;;;4.82;4.32;;;;;;;33.29;28.04;99388.97;5070994;28;20621;-65
2022/08/08 10:10:01;;;;;;;7.65;4.20;;;;;;;33.36;27.99;99372.38;5070988;28;20200;-66
2022/08/08 10:12:36;;;;;;;4.53;4.22;;;;;;;33.20;28.58;99386.06;5078038;28;21468;-66
2022/08/08 10:15:05;;;;;;;7.25;5.35;;;;;;;33.13;28.85;99378.66;5068701;28;20244;-65
2022/08/08 10:17:44;;;;;;;7.97;4.78;;;;;;;33.14;27.84;99370.56;5079753;28;20223;-65
2022/08/08 10:20:12;;;;;;;7.68;4.07;;;;;;;33.24;27.56;99371.50;5078815;28;20244;-65
2022/08/08 10:22:46;;;;;;;5.07;4.38;;;;;;;33.41;27.30;99374.66;5066435;28;20183;-65
2022/08/08 10:25:19;;;;;;;5.18;3.85;;;;;;;33.52;27.12;99358.66;5066027;28;20586;-66
2022/08/08 10:27:50;;;;;;;5.38;4.85;;;;;;;33.79;27.83;99364.47;5069921;28;20242;-65
2022/08/08 10:30:17;;;;;;;4.00;3.65;;;;;;;33.61;27.22;99361.47;5070926;28;20697;-66
2022/08/08 10:32:51;;;;;;;7.03;4.13;;;;;;;33.94;26.82;99365.91;5070906;28;20218;-65
2022/08/08 10:35:20;;;;;;;7.65;4.50;;;;;;;34.24;26.30;99354.53;5071149;28;20183;-66
2022/08/08 10:37:58;;;;;;;5.13;3.55;;;;;;;34.18;25.21;99355.91;5070707;28;20206;-58
2022/08/08 10:40:26;;;;;;;5.88;4.07;;;;;;;34.10;25.75;99358.34;5070655;28;20198;-57
2022/08/08 10:42:57;;;;;;;5.28;3.38;;;;;;;34.24;25.80;99350.06;5066801;28;20198;-58
2022/08/08 10:45:25;;;;;;;4.38;3.97;;;;;;;34.35;25.51;99342.00;5071286;28;20325;-58
2022/08/08 10:47:56;;;;;;;4.82;3.88;;;;;;;34.51;24.90;99332.69;5071384;28;20602;-57
2022/08/08 10:50:32;;;;;;;8.43;3.67;;;;;;;34.49;24.92;99337.31;5070774;28;20286;-58
2022/08/08 10:53:04;;;;;;;7.05;4.32;;;;;;;34.49;25.60;99331.97;5068620;28;20279;-58
2022/08/08 10:55:31;;;;;;;5.47;3.40;;;;;;;34.20;24.57;99332.59;5050153;28;20822;-59
2022/08/08 10:58:01;;;;;;;3.72;3.38;;;;;;;33.75;25.47;99331.91;5051436;28;20192;-58
2022/08/08 11:00:28;;;;;;;5.80;3.73;;;;;;;33.47;25.76;99327.06;5050566;28;20443;-58
2022/08/08 11:03:10;;;;;;;3.95;3.60;;;;;;;33.42;25.60;99333.72;5068043;28;20291;-58
2022/08/08 11:05:43;;;;;;;4.00;3.70;;;;;;;33.56;26.62;99317.50;5067765;28;20253;-58
2022/08/08 11:08:21;;;;;;;4.90;3.33;;;;;;;33.80;25.92;99321.69;5055029;28;20626;-58
2022/08/08 11:10:48;;;;;;;6.63;3.60;;;;;;;33.85;25.34;99315.97;5066928;28;20202;-59
2022/08/08 11:13:20;;;;;;;5.22;3.83;;;;;;;34.06;25.70;99314.22;5056982;28;20920;-58
2022/08/08 11:15:47;;;;;;;6.50;3.83;;;;;;;34.25;25.01;99316.22;5062826;28;20655;-58
2022/08/08 11:18:18;;;;;;;11.60;3.67;;;;;;;34.42;24.51;99305.81;5063850;28;20243;-58
2022/08/08 11:20:47;;;;;;;7.35;3.35;;;;;;;34.71;23.85;99295.34;5056567;28;20196;-59
2022/08/08 11:23:20;;;;;;;3.40;3.10;;;;;;;34.30;23.54;99304.19;5070239;28;20195;-60
2022/08/08 11:25:51;;;;;;;4.18;2.90;;;;;;;34.21;24.24;99293.44;5069743;28;20192;-59
2022/08/08 11:28:23;;;;;;;9.38;3.50;;;;;;;34.15;25.70;99296.63;5069847;28;20200;-58
2022/08/08 11:30:52;;;;;;;8.90;3.55;;;;;;;33.86;24.56;99307.00;5068971;28;20191;-58
2022/08/08 11:33:24;;;;;;;6.38;3.20;;;;;;;33.77;24.31;99305.94;5068771;28;20220;-58
2022/08/08 11:35:52;;;;;;;5.57;3.00;;;;;;;33.83;24.88;99307.25;5069501;28;20227;-58
2022/08/08 11:38:19;;;;;;;5.72;3.90;;;;;;;34.16;24.98;99293.84;5069476;28;20206;-58
2022/08/08 11:40:46;;;;;;;6.20;3.10;;;;;;;34.34;24.36;99305.63;5067166;28;20199;-58
2022/08/08 11:43:14;;;;;;;5.30;3.40;;;;;;;34.47;24.56;99285.91;5057915;28;20495;-58
2022/08/08 11:45:41;;;;;;;4.85;3.55;;;;;;;34.54;24.19;99305.75;5069560;28;20203;-58
2022/08/08 11:48:08;;;;;;;7.70;3.22;;;;;;;34.15;23.74;99288.59;5069445;28;20199;-58
2022/08/08 11:50:37;;;;;;;6.95;3.10;;;;;;;33.93;23.05;99289.53;5069810;28;20191;-58
2022/08/08 11:53:05;;;;;;;5.85;3.30;;;;;;;33.93;23.88;99275.34;5069487;28;20223;-58
2022/08/08 11:55:34;;;;;;;6.55;3.78;;;;;;;34.33;23.95;99281.75;5060300;28;20196;-58
2022/08/08 11:58:02;;;;;;;5.07;3.00;;;;;;;34.60;23.27;99281.22;5056621;28;20932;-58
2022/08/08 12:00:29;;;;;;;5.65;2.85;;;;;;;34.39;22.34;99289.22;5054099;28;20204;-58
2022/08/08 12:02:58;;;;;;;6.82;2.97;;;;;;;34.37;22.42;99269.81;5067213;28;20514;-57
2022/08/08 12:05:37;;;;;;;4.45;2.95;;;;;;;34.52;23.14;99268.53;5056406;28;20249;-58